createdAt,value
2023-03-23T15:58:25.670Z,67.65
2023-03-23T16:00:57.771Z,67.92
2023-03-23T16:03:34.832Z,67.91
2023-03-23T16:06:07.157Z,67.64
2023-03-23T16:08:41.102Z,67.69
2023-03-23T16:11:13.147Z,67.71
2023-03-23T16:13:44.808Z,67.87
2023-03-23T16:16:23.489Z,67.88
2023-03-23T16:18:54.877Z,67.90
2023-03-23T16:21:26.758Z,67.56
2023-03-23T16:23:58.600Z,67.58
2023-03-23T16:26:30.068Z,67.99
2023-03-23T16:29:12.979Z,68.33
2023-03-23T16:31:46.244Z,67.84
2023-03-23T16:34:17.388Z,67.98
2023-03-23T16:36:48.745Z,67.67
2023-03-23T16:39:20.447Z,67.36
2023-03-23T16:41:51.597Z,67.55
2023-03-23T16:44:23.085Z,67.58
2023-03-23T16:46:54.232Z,67.65
2023-03-23T16:49:25.769Z,67.55
2023-03-23T16:51:56.743Z,67.71
2023-03-23T16:54:28.952Z,68.30
2023-03-23T16:57:00.972Z,69.44
2023-03-23T16:59:35.065Z,69.54
2023-03-23T17:02:08.336Z,69.86
2023-03-23T17:04:43.794Z,69.85
2023-03-23T17:07:15.565Z,70.63
2023-03-23T17:09:48.215Z,70.19
2023-03-23T17:12:20.197Z,69.69
2023-03-23T17:14:51.753Z,70.23
2023-03-23T17:17:24.797Z,70.19
2023-03-23T17:19:56.521Z,69.72
2023-03-23T17:22:28.877Z,69.73
2023-03-23T17:25:00.306Z,70.25
2023-03-23T17:27:31.370Z,69.83
2023-03-23T17:30:02.627Z,70.29
2023-03-23T17:32:36.721Z,70.73
2023-03-23T17:35:10.153Z,71.08
2023-03-23T17:37:41.795Z,70.88
2023-03-23T17:40:14.762Z,69.72
2023-03-23T17:42:46.728Z,69.18
2023-03-23T17:45:18.762Z,68.99
2023-03-23T17:47:50.124Z,68.72
2023-03-23T17:50:22.015Z,68.43
2023-03-23T17:52:52.914Z,68.22
2023-03-23T17:55:25.321Z,68.13
2023-03-23T17:57:58.405Z,67.93
2023-03-23T18:00:29.817Z,67.57
2023-03-23T18:03:01.610Z,67.58
2023-03-23T18:05:33.038Z,67.54
2023-03-23T18:08:04.750Z,67.43
2023-03-23T18:10:37.553Z,67.48
2023-03-23T18:13:09.918Z,67.31
2023-03-23T18:15:46.765Z,67.23
2023-03-23T18:18:18.106Z,67.07
2023-03-23T18:20:49.584Z,67.01
2023-03-23T18:23:20.538Z,67.06
2023-03-23T18:25:53.830Z,66.89
2023-03-23T18:28:25.402Z,66.80
2023-03-23T18:30:56.808Z,66.83
2023-03-23T18:33:27.977Z,66.69
2023-03-23T18:36:01.986Z,66.75
2023-03-23T18:38:34.139Z,66.66
2023-03-23T18:41:10.714Z,66.66
2023-03-23T18:43:44.790Z,66.45
2023-03-23T18:46:16.653Z,66.44
2023-03-23T18:48:49.433Z,66.30
2023-03-23T18:51:20.755Z,66.40
2023-03-23T18:53:52.049Z,66.36
2023-03-23T18:56:23.473Z,66.27
2023-03-23T18:58:55.418Z,66.41
2023-03-23T19:01:26.750Z,66.22
2023-03-23T19:03:57.910Z,66.23
2023-03-23T19:06:31.938Z,66.24
2023-03-23T19:09:05.187Z,66.16
2023-03-23T19:11:36.239Z,66.11
2023-03-23T19:14:07.480Z,66.10
2023-03-23T19:16:39.382Z,66.17
2023-03-23T19:19:11.079Z,66.13
2023-03-23T19:21:47.009Z,66.10
2023-03-23T19:24:18.879Z,66.01
2023-03-23T19:26:50.400Z,65.93
2023-03-23T19:31:56.703Z,65.96
2023-03-23T19:34:30.750Z,66.06
2023-03-23T19:37:05.973Z,65.95
2023-03-23T19:39:42.949Z,65.86
2023-03-23T19:42:18.584Z,65.95
2023-03-23T19:44:49.655Z,65.98
2023-03-23T19:47:21.699Z,65.95
2023-03-23T19:49:53.532Z,65.80
2023-03-23T19:52:24.584Z,65.80
2023-03-23T19:54:56.094Z,65.90
2023-03-23T19:57:27.822Z,65.76
2023-03-23T19:59:59.324Z,65.73
2023-03-23T20:02:30.524Z,65.74
2023-03-23T20:05:01.821Z,65.75
2023-03-23T20:07:32.790Z,65.63
2023-03-23T20:10:03.972Z,65.69
2023-03-23T20:12:35.507Z,65.53
2023-03-23T20:15:10.298Z,65.44
2023-03-23T20:17:42.140Z,65.52
2023-03-23T20:20:15.581Z,65.53
2023-03-23T20:22:48.082Z,65.42
2023-03-23T20:25:22.648Z,65.50
2023-03-23T20:27:55.128Z,65.49
2023-03-23T20:30:29.647Z,65.40
2023-03-23T20:33:01.875Z,65.37
2023-03-23T20:35:33.753Z,65.38
2023-03-23T20:38:05.779Z,65.42
2023-03-23T20:40:38.617Z,65.33
2023-03-23T20:43:11.051Z,65.29
2023-03-23T20:45:43.464Z,65.29
2023-03-23T20:48:15.939Z,65.26
2023-03-23T20:50:50.644Z,65.40
2023-03-23T20:53:21.692Z,65.17
2023-03-23T20:55:53.586Z,65.34
2023-03-23T20:58:27.932Z,65.26
2023-03-23T21:01:01.493Z,65.39
2023-03-23T21:03:35.536Z,65.37
2023-03-23T21:06:10.502Z,65.28
2023-03-23T21:08:42.643Z,65.27
2023-03-23T21:11:18.772Z,65.31
2023-03-23T21:13:50.994Z,65.26
2023-03-23T21:16:23.794Z,65.28
2023-03-23T21:18:56.145Z,65.31
2023-03-23T21:21:28.406Z,65.21
2023-03-23T21:23:59.562Z,65.12
2023-03-23T21:26:32.279Z,65.22
2023-03-23T21:29:04.370Z,65.23
2023-03-23T21:31:36.460Z,65.15
2023-03-23T21:34:08.496Z,65.13
2023-03-23T21:36:40.282Z,65.25
2023-03-23T21:39:12.761Z,65.20
2023-03-23T21:41:45.133Z,65.24
2023-03-23T21:44:16.488Z,65.15
2023-03-23T21:46:48.335Z,65.21
2023-03-23T21:49:19.720Z,65.35
2023-03-23T21:51:52.550Z,65.21
2023-03-23T21:54:24.066Z,65.21
2023-03-23T21:56:56.506Z,65.18
2023-03-23T21:59:28.543Z,65.25
2023-03-23T22:02:02.811Z,65.14
2023-03-23T22:04:36.316Z,65.13
2023-03-23T22:07:08.663Z,65.05
2023-03-23T22:09:41.219Z,65.15
2023-03-23T22:12:14.335Z,65.00
2023-03-23T22:14:47.088Z,64.99
2023-03-23T22:17:19.970Z,65.06
2023-03-23T22:19:53.380Z,65.10
2023-03-23T22:22:25.742Z,65.01
2023-03-23T22:24:57.372Z,65.02
2023-03-23T22:27:28.748Z,65.06
2023-03-23T22:30:00.329Z,65.08
2023-03-23T22:32:32.226Z,64.99
2023-03-23T22:35:07.230Z,65.11
2023-03-23T22:37:38.913Z,65.14
2023-03-23T22:40:11.668Z,65.06
2023-03-23T22:42:43.353Z,65.06
2023-03-23T22:45:15.023Z,65.18
2023-03-23T22:47:46.811Z,65.16
2023-03-23T22:50:18.983Z,65.12
2023-03-23T22:52:50.508Z,65.18
2023-03-23T22:55:22.061Z,65.15
2023-03-23T22:57:53.441Z,65.38
2023-03-23T23:00:25.632Z,65.28
2023-03-23T23:02:57.243Z,65.61
2023-03-23T23:05:28.802Z,65.56
2023-03-23T23:08:01.093Z,65.66
2023-03-23T23:10:35.642Z,65.70
2023-03-23T23:13:07.042Z,65.91
2023-03-23T23:15:39.301Z,65.89
2023-03-23T23:18:12.605Z,65.96
2023-03-23T23:20:44.873Z,66.03
2023-03-23T23:23:16.715Z,66.21
2023-03-23T23:25:48.702Z,66.24
2023-03-23T23:28:22.853Z,66.34
2023-03-23T23:30:55.568Z,66.50
2023-03-23T23:33:27.299Z,66.64
2023-03-23T23:35:58.637Z,66.67
2023-03-23T23:38:30.787Z,66.76
2023-03-23T23:41:01.809Z,66.91
2023-03-23T23:43:33.234Z,66.84
2023-03-23T23:46:05.165Z,66.99
2023-03-23T23:48:36.866Z,66.98
2023-03-23T23:51:09.826Z,67.16
2023-03-23T23:53:42.591Z,67.16
2023-03-23T23:56:15.869Z,67.36
2023-03-23T23:58:48.362Z,67.37
